createdAt,value
2022-12-28T00:08:29.486Z,3.70
2022-12-28T00:18:36.573Z,4.03
2022-12-28T00:28:40.098Z,3.90
2022-12-28T00:38:44.762Z,3.50
2022-12-28T00:48:47.766Z,3.80
2022-12-28T00:58:56.394Z,3.30
2022-12-28T01:08:59.536Z,3.10
2022-12-28T01:19:06.640Z,3.57
2022-12-28T01:29:09.795Z,3.60
2022-12-28T01:39:14.244Z,3.17
2022-12-28T01:49:20.645Z,2.93
2022-12-28T01:59:30.161Z,3.60
2022-12-28T02:09:38.796Z,3.10
2022-12-28T02:19:46.606Z,3.40
2022-12-28T02:30:03.650Z,3.40
2022-12-28T02:40:10.733Z,3.67
2022-12-28T02:50:17.622Z,3.30
2022-12-28T03:00:23.074Z,3.80
2022-12-28T03:10:33.355Z,3.13
2022-12-28T03:20:53.882Z,3.17
2022-12-28T03:31:07.660Z,3.00
2022-12-28T03:41:16.138Z,3.13
2022-12-28T03:51:22.908Z,3.47
2022-12-28T04:01:26.097Z,2.93
2022-12-28T04:11:30.790Z,3.27
2022-12-28T04:21:33.870Z,2.93
2022-12-28T04:31:38.409Z,2.60
2022-12-28T04:41:41.472Z,2.70
2022-12-28T04:51:45.855Z,2.90
2022-12-28T05:01:49.051Z,3.03
2022-12-28T05:11:53.619Z,2.70
2022-12-28T05:21:56.622Z,2.93
2022-12-28T05:32:00.988Z,2.63
2022-12-28T05:42:04.001Z,2.73
2022-12-28T05:52:08.439Z,2.80
2022-12-28T06:02:11.550Z,2.63
2022-12-28T06:12:17.915Z,2.97
2022-12-28T06:22:20.938Z,2.87
2022-12-28T06:32:25.296Z,2.50
2022-12-28T06:42:28.336Z,2.83
2022-12-28T06:52:33.915Z,3.00
2022-12-28T07:02:37.105Z,2.93
2022-12-28T07:12:41.637Z,2.87
2022-12-28T07:22:44.641Z,2.90
2022-12-28T07:32:49.067Z,2.97
2022-12-28T07:42:52.060Z,2.70
2022-12-28T07:52:56.494Z,3.00
2022-12-28T08:02:59.490Z,2.97
2022-12-28T08:13:04.461Z,3.20
2022-12-28T08:23:07.533Z,2.93
2022-12-28T08:33:11.972Z,3.17
2022-12-28T08:43:14.985Z,2.80
2022-12-28T08:53:19.384Z,3.23
2022-12-28T09:03:22.433Z,3.17
2022-12-28T09:13:26.825Z,2.80
2022-12-28T09:23:29.900Z,3.10
2022-12-28T09:34:33.831Z,2.60
2022-12-28T09:44:34.644Z,2.37
2022-12-28T09:54:40.703Z,2.57
2022-12-28T10:04:49.122Z,2.70
2022-12-28T10:14:54.709Z,3.10
2022-12-28T10:24:57.767Z,2.50
2022-12-28T10:35:03.420Z,2.53
2022-12-28T10:45:17.312Z,2.47
2022-12-28T10:55:30.479Z,2.93
2022-12-28T11:05:33.583Z,2.30
2022-12-28T11:15:37.975Z,2.87
2022-12-28T11:25:42.754Z,3.17
2022-12-28T11:35:48.574Z,2.60
2022-12-28T11:45:54.768Z,3.07
2022-12-28T11:56:08.000Z,2.50
2022-12-28T12:06:11.130Z,2.60
2022-12-28T12:16:24.147Z,2.57
2022-12-28T12:26:34.615Z,2.37
2022-12-28T12:37:16.531Z,2.67
2022-12-28T12:47:40.968Z,2.27
2022-12-28T12:57:54.555Z,2.80
2022-12-28T13:08:00.004Z,2.40
2022-12-28T13:28:31.592Z,2.40
2022-12-28T13:38:37.168Z,2.60
2022-12-28T13:48:45.093Z,2.67
2022-12-28T13:58:53.973Z,2.33
2022-12-28T14:09:00.886Z,2.37
2022-12-28T14:19:10.562Z,2.40
2022-12-28T14:29:19.521Z,2.00
2022-12-28T14:39:30.961Z,2.10
2022-12-28T14:49:37.230Z,2.30
2022-12-28T14:59:47.206Z,2.43
2022-12-28T15:09:50.277Z,2.50
2022-12-28T15:19:54.656Z,1.80
2022-12-28T15:30:06.280Z,1.90
2022-12-28T15:40:12.860Z,2.00
2022-12-28T15:50:15.956Z,2.00
2022-12-28T16:00:21.455Z,2.10
2022-12-28T16:10:24.516Z,2.40
2022-12-28T16:20:30.426Z,2.30
2022-12-28T16:30:48.625Z,2.47
2022-12-28T16:40:53.001Z,1.97
2022-12-28T16:50:59.145Z,2.00
2022-12-28T17:01:09.366Z,1.80
2022-12-28T17:11:13.516Z,2.17
2022-12-28T17:21:17.944Z,2.20
2022-12-28T17:31:23.471Z,2.60
2022-12-28T17:41:28.576Z,2.43
2022-12-28T17:51:31.571Z,2.50
2022-12-28T18:01:36.106Z,2.50
2022-12-28T18:11:39.193Z,2.50
2022-12-28T18:21:43.639Z,2.57
2022-12-28T18:31:46.763Z,2.53
2022-12-28T18:41:51.226Z,2.60
2022-12-28T18:51:55.279Z,2.73
2022-12-28T19:02:09.983Z,3.20
2022-12-28T19:12:14.990Z,2.93
2022-12-28T19:22:19.419Z,2.60
2022-12-28T19:32:22.568Z,2.83
2022-12-28T19:42:27.019Z,2.80
2022-12-28T19:52:30.043Z,2.63
2022-12-28T20:02:34.606Z,2.70
2022-12-28T20:12:37.896Z,2.90
2022-12-28T20:22:42.571Z,2.50
2022-12-28T20:32:46.693Z,2.80
2022-12-28T20:43:16.788Z,2.80
2022-12-28T20:53:19.861Z,2.40
2022-12-28T21:03:24.258Z,2.63
2022-12-28T21:13:28.447Z,2.40
2022-12-28T21:23:33.536Z,1.90
2022-12-28T21:33:37.019Z,2.27
2022-12-28T21:43:41.875Z,2.50
2022-12-28T21:53:44.920Z,2.40
2022-12-28T22:04:06.584Z,2.43
2022-12-28T22:14:09.855Z,2.37
2022-12-28T22:24:14.253Z,2.07
2022-12-28T22:34:17.312Z,1.90
2022-12-28T22:44:21.751Z,2.20
2022-12-28T22:54:24.815Z,2.53
2022-12-28T23:04:29.436Z,1.83
2022-12-28T23:14:49.846Z,2.27
2022-12-28T23:25:11.502Z,1.97
2022-12-28T23:35:14.639Z,1.87
2022-12-28T23:45:19.807Z,2.23
2022-12-28T23:55:22.913Z,2.43
